Happy Valentine's Day! 

Flight Track Log - Related Links

Times and Time Zones

All times are in EST time to prevent confusion due to time zone crossing. See the N500CD flight status page for this flight to view local times or setup timezone preferences in your user account.


Time Position Orientation Groundspeed Altitude Reporting Facility
EST Latitude Longitude Course Direction KTS MPH feet Rate Location/Type
Fri 02:43:19 PM 29.3956 -82.0775 153° Southeast 209 241 12,800  Level Jacksonville Center
Fri 02:44:19 PM 29.3472 -82.0492 153° Southeast 198 228 14,500 1,550 Climbing Jacksonville Center
Fri 02:45:19 PM 29.2992 -82.0233 155° Southeast 198 228 15,900 1,300 Climbing Jacksonville Center
Fri 02:46:19 PM 29.2508 -81.9953 153° Southeast 193 222 17,100 800 Climbing Jacksonville Center
Fri 02:47:19 PM 29.2006 -81.9506 142° Southeast 208 239 17,500 200 Climbing Jacksonville Center
Fri 02:48:19 PM 29.1417 -81.8964 141° Southeast 241 277 17,500  Level Jacksonville Center
Fri 02:49:19 PM 29.0783 -81.8353 140° Southeast 276 318 17,500  Level Jacksonville Center
Fri 02:50:19 PM 29.0111 -81.7742 142° Southeast 295 339 17,500  Level Jacksonville Center
Fri 02:51:19 PM 28.9522 -81.7181 140° Southeast 306 352 17,500  Level Jacksonville Center
Fri 02:52:19 PM 28.8847 -81.6547 141° Southeast 312 359 17,500  Level Jacksonville Center
Fri 02:53:19 PM 28.8175 -81.5917 141° Southeast 317 365 17,500  Level Jacksonville Center
Fri 02:54:19 PM 28.7478 -81.5286 142° Southeast 317 365 17,500  Level Jacksonville Center
Fri 02:55:19 PM 28.6783 -81.4633 140° Southeast 317 365 17,500  Level Jacksonville Center
Fri 02:56:19 PM 28.6108 -81.4003 141° Southeast 322 371 17,500  Level Jacksonville Center
Fri 02:58:12 PM 28.4681 -81.2867 145° Southeast 330 380 17,500  Level Miami Center
Fri 02:59:12 PM 28.3925 -81.2364 150° Southeast 323 372 17,500  Level Miami Center
Fri 03:00:12 PM 28.3189 -81.1864 149° Southeast 317 365 17,500  Level Miami Center
Fri 03:01:12 PM 28.2431 -81.1364 150° Southeast 312 359 17,500  Level Miami Center
Fri 03:02:12 PM 28.1778 -81.0914 149° Southeast 307 353 17,500  Level Miami Center
Fri 03:03:12 PM 28.1019 -81.0417 150° Southeast 307 353 17,500  Level Miami Center
Fri 03:04:12 PM 28.0203 -80.9844 148° Southeast 307 353 17,500  Level Miami Center
Fri 03:05:12 PM 27.9464 -80.9347 149° Southeast 313 360 17,500  Level Miami Center
Fri 03:06:12 PM 27.8708 -80.8828 149° Southeast 313 360 17,500  Level Miami Center
Fri 03:07:12 PM 27.8011 -80.8381 150° Southeast 313 360 17,500  Level Miami Center
Fri 03:08:12 PM 27.7211 -80.7814 148° Southeast 313 360 17,500  Level Miami Center
Fri 03:09:12 PM 27.6433 -80.7294 149° Southeast 313 360 17,500  Level Miami Center
Fri 03:10:12 PM 27.5817 -80.6875 149° Southeast 313 360 17,500  Level Miami Center
Fri 03:11:12 PM 27.4975 -80.6333 150° Southeast 318 366 17,500  Level Miami Center
Fri 03:12:12 PM 27.4133 -80.5767 149° Southeast 323 372 17,500  Level Miami Center
Fri 03:14:00 PM 27.3337 -80.5057 149° Southeast  Level FlightAware Approximate
Fri 03:21:00 PM 26.9906 -80.2763 146° Southeast  Level FlightAware Approximate
Fri 03:22:00 PM 26.9431 -80.2406 146° Southeast  Level FlightAware Approximate
Fri 03:23:00 PM 26.8918 -80.2126 156° South  Level FlightAware Approximate
Fri 03:24:00 PM 26.8396 -80.1864 156° South  Level FlightAware Approximate
Fri 03:25:00 PM 26.7898 -80.1577 163° South  Level FlightAware Approximate
Fri 03:26:00 PM 26.7406 -80.1277 152° Southeast  Level FlightAware Approximate
Fri 03:27:00 PM 26.6901 -80.0974 152° Southeast  Level FlightAware Approximate
Fri 03:28:00 PM 26.6832 -80.0956 152° Southeast  Level Estimated
Fri 03:29:00 PM 26.6832 -80.0956 152° Southeast  Level Estimated
Fri 03:30:00 PM 26.6832 -80.0956 152° Southeast  Level Estimated
Fri 03:31:00 PM 26.6832 -80.0956 152° Southeast  Level Estimated
Fri 03:32:00 PM 26.6832 -80.0956 152° Southeast  Level Estimated
Fri 03:33:00 PM 26.6832 -80.0956 152° Southeast  Level Estimated
Fri 03:34:00 PM 26.6832 -80.0956 152° Southeast  Level Estimated
Fri 03:35:00 PM 26.6832 -80.0956 152° Southeast  Level Estimated
Fri 03:36:00 PM 26.6832 -80.0956 152° Southeast  Level Estimated
Fri 03:37:00 PM 26.6832 -80.0956 152° Southeast  Level Estimated
Fri 03:38:00 PM 26.6832 -80.0956 152° Southeast  Level Estimated
Fri 03:39:00 PM 26.6832 -80.0956 152° Southeast  Level Estimated
Fri 03:40:00 PM 26.6832 -80.0956 152° Southeast  Level Estimated
Fri 03:41:00 PM 26.6832 -80.0956 152° Southeast  Level Estimated
Fri 03:42:00 PM 26.6832 -80.0956 152° Southeast  Level Estimated
Fri 03:43:00 PM 26.6832 -80.0956 152° Southeast  Level Estimated
Fri 03:44:00 PM 26.6832 -80.0956 152° Southeast  Level Estimated
Fri 03:45:00 PM 26.6832 -80.0956 152° Southeast  Level Estimated
Fri 03:46:00 PM 26.6832 -80.0956 152° Southeast  Level Estimated
Fri 03:47:00 PM 26.6832 -80.0956 152° Southeast  Level Estimated
Fri 03:48:00 PM 26.6832 -80.0956 152° Southeast  Level Estimated
Fri 03:49:00 PM 26.6832 -80.0956 152° Southeast  Level Estimated
Fri 03:50:00 PM 26.6832 -80.0956 152° Southeast  Level Estimated
Fri 03:51:00 PM 26.6832 -80.0956 152° Southeast  Level Estimated
Fri 03:52:00 PM 26.6832 -80.0956 152° Southeast  Level Estimated
Fri 03:53:00 PM 26.6832 -80.0956 152° Southeast  Level Estimated
Fri 03:54:00 PM 26.6832 -80.0956 152° Southeast  Level Estimated
Fri 03:55:00 PM 26.6832 -80.0956 152° Southeast  Level Estimated
Fri 03:56:00 PM 26.6832 -80.0956 152° Southeast  Level Estimated
Fri 03:57:00 PM 26.6832 -80.0956 152° Southeast  Level Estimated
Fri 03:58:00 PM 26.6832 -80.0956 152° Southeast  Level Estimated

Login

Don't have an account? Register now (free) for customized features, flight alerts, and more!